Time;durP1;ratioP1;P1;durP2;ratioP2;P2;SDS_P1;SDS_P2;PMS_P1;PMS_P2;Temp;Humidity;BMP_temperature;BMP_pressure;BME280_temperature;BME280_humidity;BME280_pressure;Samples;Min_cycle;Max_cycle;Signal;HPM_P1;HPM_P2
2023/03/01 00:01:47;;;;;;;9.77;7.38;;;2.70;53.80;;;;;;5004562;28;20195;-48
2023/03/01 00:04:16;;;;;;;7.97;6.88;;;2.60;53.70;;;;;;5032606;28;20780;-49
2023/03/01 00:06:45;;;;;;;8.40;6.95;;;2.60;53.80;;;;;;5029066;28;20042;-50
2023/03/01 00:09:13;;;;;;;9.35;6.82;;;2.60;53.90;;;;;;5009369;28;20442;-47
2023/03/01 00:11:41;;;;;;;9.70;7.22;;;2.50;53.80;;;;;;5020833;28;20069;-48
2023/03/01 00:14:12;;;;;;;9.48;7.30;;;2.60;53.90;;;;;;5032229;28;20576;-46
2023/03/01 00:16:43;;;;;;;12.05;7.50;;;2.50;54.00;;;;;;5005357;28;20069;-47
2023/03/01 00:19:16;;;;;;;8.93;6.93;;;2.50;54.30;;;;;;5014619;28;20120;-47
2023/03/01 00:21:46;;;;;;;7.57;6.45;;;2.50;54.70;;;;;;5013823;28;20038;-46
2023/03/01 00:24:15;;;;;;;7.90;6.70;;;2.50;54.60;;;;;;5027875;28;20041;-44
2023/03/01 00:26:44;;;;;;;10.35;6.60;;;2.50;54.60;;;;;;5030642;28;20080;-48
2023/03/01 00:29:13;;;;;;;9.60;6.85;;;2.60;54.50;;;;;;5012336;28;20391;-46
2023/03/01 00:31:46;;;;;;;15.70;7.95;;;2.60;54.50;;;;;;5028756;28;20042;-46
2023/03/01 00:34:13;;;;;;;7.97;6.65;;;2.60;54.40;;;;;;5030866;28;20505;-48
2023/03/01 00:36:39;;;;;;;8.85;7.20;;;2.60;54.40;;;;;;5025042;28;20122;-46
2023/03/01 00:39:14;;;;;;;8.55;6.93;;;2.60;54.50;;;;;;5013618;28;20129;-49
2023/03/01 00:41:42;;;;;;;9.98;7.03;;;2.60;54.70;;;;;;5032608;28;20034;-51
2023/03/01 00:44:09;;;;;;;8.45;7.30;;;2.50;54.40;;;;;;5019575;28;20038;-53
2023/03/01 00:46:40;;;;;;;8.20;7.25;;;2.60;54.50;;;;;;5019531;28;20116;-47
2023/03/01 00:49:09;;;;;;;7.03;6.28;;;2.60;54.40;;;;;;5031171;28;20084;-49
2023/03/01 00:51:41;;;;;;;8.73;7.65;;;2.50;54.40;;;;;;5017025;28;20046;-48
2023/03/01 00:54:10;;;;;;;7.15;6.45;;;2.50;54.30;;;;;;5027985;28;20477;-51
2023/03/01 00:56:39;;;;;;;10.40;7.75;;;2.60;54.30;;;;;;5031985;28;20034;-50
2023/03/01 00:59:11;;;;;;;10.73;7.57;;;2.50;54.20;;;;;;5031619;28;20041;-46
2023/03/01 01:01:38;;;;;;;13.70;7.88;;;2.50;55.10;;;;;;5017342;28;20046;-50
2023/03/01 01:04:11;;;;;;;8.73;7.28;;;2.40;54.30;;;;;;5026093;28;20046;-52
2023/03/01 01:06:42;;;;;;;9.85;7.18;;;2.40;54.40;;;;;;5029882;28;20041;-51
2023/03/01 01:09:16;;;;;;;12.05;7.28;;;2.40;54.40;;;;;;5023667;28;20046;-46
2023/03/01 01:11:50;;;;;;;9.82;7.00;;;2.30;54.40;;;;;;5022088;28;20041;-49
2023/03/01 01:14:26;;;;;;;9.38;6.78;;;2.30;54.50;;;;;;5030955;28;20116;-51
2023/03/01 01:16:53;;;;;;;9.35;7.13;;;2.30;54.60;;;;;;5031881;28;20642;-49
2023/03/01 01:19:20;;;;;;;8.90;7.50;;;2.20;54.30;;;;;;5010394;28;20417;-50
2023/03/01 01:21:48;;;;;;;8.77;7.30;;;2.20;54.40;;;;;;5010813;28;20057;-50
2023/03/01 01:24:15;;;;;;;8.93;7.60;;;2.20;54.50;;;;;;5027740;28;20033;-52
2023/03/01 01:26:42;;;;;;;8.88;7.30;;;2.10;54.50;;;;;;5028879;28;20049;-45
2023/03/01 01:29:12;;;;;;;8.15;7.15;;;2.10;54.60;;;;;;5009430;28;20141;-48
2023/03/01 01:31:43;;;;;;;8.15;7.32;;;2.10;54.60;;;;;;5005864;28;20049;-47
2023/03/01 01:34:22;;;;;;;10.80;8.00;;;2.10;54.60;;;;;;5007627;28;20689;-47
2023/03/01 01:36:53;;;;;;;8.20;6.68;;;2.10;54.80;;;;;;5020339;28;20039;-49
2023/03/01 01:39:21;;;;;;;8.07;6.60;;;2.00;54.60;;;;;;5031728;28;20037;-50
2023/03/01 01:41:48;;;;;;;9.30;7.55;;;2.00;54.60;;;;;;5030931;28;20586;-49
2023/03/01 01:44:21;;;;;;;14.32;7.15;;;2.00;54.70;;;;;;5010044;28;20042;-48
2023/03/01 01:46:55;;;;;;;9.82;7.60;;;2.00;54.70;;;;;;5013754;28;20042;-50
2023/03/01 01:49:28;;;;;;;9.38;8.38;;;2.00;54.70;;;;;;5011933;28;20033;-47
2023/03/01 01:52:05;;;;;;;8.48;7.07;;;1.90;54.90;;;;;;5009663;28;20057;-48
2023/03/01 01:55:00;;;;;;;9.45;7.25;;;1.90;55.00;;;;;;5017673;28;20045;-48
2023/03/01 01:57:42;;;;;;;8.93;7.10;;;1.90;55.40;;;;;;4992449;28;20042;-48
2023/03/01 02:00:24;;;;;;;10.88;8.30;;;1.90;55.20;;;;;;5011907;28;20510;-49
2023/03/01 02:02:56;;;;;;;9.68;8.23;;;1.80;54.80;;;;;;5020605;28;20531;-49
2023/03/01 02:05:32;;;;;;;8.02;6.50;;;1.80;54.80;;;;;;5014891;28;20095;-49
2023/03/01 02:08:01;;;;;;;8.38;7.18;;;1.80;54.90;;;;;;5019484;28;20064;-50
2023/03/01 02:10:33;;;;;;;9.30;8.20;;;1.80;54.70;;;;;;5005780;28;20096;-48
2023/03/01 02:13:03;;;;;;;8.75;7.90;;;1.70;54.80;;;;;;5018968;28;20037;-51
2023/03/01 02:15:34;;;;;;;9.02;8.13;;;1.70;55.00;;;;;;5017244;28;20053;-46
2023/03/01 02:18:03;;;;;;;10.95;8.23;;;1.70;55.00;;;;;;5015639;28;20061;-47
2023/03/01 02:20:33;;;;;;;12.27;7.93;;;1.60;55.00;;;;;;5007573;28;20501;-48
2023/03/01 02:23:01;;;;;;;10.57;8.27;;;1.60;55.00;;;;;;5010862;28;20042;-49
2023/03/01 02:25:34;;;;;;;8.57;7.13;;;1.60;55.00;;;;;;5018306;28;20041;-50
2023/03/01 02:28:15;;;;;;;10.60;8.05;;;1.60;55.40;;;;;;5022083;28;20068;-52
2023/03/01 02:33:38;;;;;;;9.95;8.05;;;1.50;55.30;;;;;;5015625;28;20095;-48
2023/03/01 02:36:20;;;;;;;8.55;7.05;;;1.50;55.00;;;;;;5029457;28;20636;-47
2023/03/01 02:38:49;;;;;;;11.20;7.80;;;1.50;55.50;;;;;;4989554;28;20561;-47
2023/03/01 02:41:22;;;;;;;8.57;7.32;;;1.40;55.10;;;;;;5022023;28;20155;-46
2023/03/01 02:43:50;;;;;;;;;;;1.40;55.10;;;;;;5029902;28;20683;-49
2023/03/01 02:46:23;;;;;;;7.75;6.30;;;1.50;56.20;;;;;;5022478;28;19931;-51
2023/03/01 02:48:57;;;;;;;10.63;7.88;;;1.40;55.00;;;;;;5017143;28;20046;-49
2023/03/01 02:51:47;;;;;;;10.25;8.38;;;1.40;55.10;;;;;;5018856;28;20055;-47
2023/03/01 02:54:25;;;;;;;9.07;6.97;;;1.40;55.90;;;;;;5038289;28;20750;-49
2023/03/01 02:56:53;;;;;;;10.30;7.93;;;1.40;55.50;;;;;;5029513;28;20636;-49
2023/03/01 02:59:25;;;;;;;12.48;9.20;;;1.30;55.20;;;;;;5028807;28;20584;-49
2023/03/01 03:01:54;;;;;;;12.87;9.73;;;1.30;55.40;;;;;;5008621;28;20073;-52
2023/03/01 03:04:26;;;;;;;9.07;8.02;;;1.30;55.40;;;;;;5012782;28;20784;-49
2023/03/01 03:06:52;;;;;;;12.68;7.65;;;1.30;55.40;;;;;;5030563;28;20048;-46
2023/03/01 03:09:24;;;;;;;10.85;8.23;;;1.20;55.30;;;;;;5010908;28;20042;-47
2023/03/01 03:11:55;;;;;;;12.82;8.27;;;1.20;55.40;;;;;;5006472;28;20052;-49
2023/03/01 03:14:25;;;;;;;10.45;7.30;;;1.20;55.30;;;;;;5025528;28;20037;-46
2023/03/01 03:16:59;;;;;;;10.00;8.85;;;1.20;55.30;;;;;;5018268;28;20034;-51
2023/03/01 03:19:33;;;;;;;12.77;8.20;;;1.20;55.40;;;;;;5016697;28;20042;-49
2023/03/01 03:22:02;;;;;;;10.23;8.88;;;1.20;55.40;;;;;;5002185;28;20042;-50
2023/03/01 03:24:37;;;;;;;11.18;7.30;;;1.10;55.30;;;;;;5012883;28;20238;-52
2023/03/01 03:27:08;;;;;;;9.90;8.27;;;1.10;55.30;;;;;;5012468;28;20048;-49
2023/03/01 03:29:39;;;;;;;10.82;7.60;;;1.10;55.40;;;;;;5009949;28;20048;-51
2023/03/01 03:32:05;;;;;;;10.30;8.57;;;1.00;55.30;;;;;;5020978;28;20037;-48
2023/03/01 03:34:32;;;;;;;10.60;8.55;;;1.00;55.30;;;;;;5029299;28;20069;-50
2023/03/01 03:36:59;;;;;;;11.25;7.35;;;1.00;55.40;;;;;;5028771;28;20037;-49
2023/03/01 03:39:34;;;;;;;12.27;8.02;;;1.00;55.50;;;;;;5018337;28;20042;-46
2023/03/01 03:42:04;;;;;;;11.27;8.07;;;1.00;55.50;;;;;;5017146;28;20037;-49
2023/03/01 03:44:33;;;;;;;12.73;7.95;;;1.00;55.50;;;;;;5013712;28;20033;-49
2023/03/01 03:47:04;;;;;;;11.38;7.88;;;0.90;55.50;;;;;;5024084;28;20052;-46
2023/03/01 03:49:33;;;;;;;9.27;8.35;;;0.90;55.60;;;;;;5010749;28;20056;-47
2023/03/01 03:52:01;;;;;;;11.00;8.30;;;0.90;55.80;;;;;;5008991;28;20043;-49
2023/03/01 03:54:30;;;;;;;14.68;8.93;;;0.90;56.00;;;;;;5024578;28;20100;-48
2023/03/01 03:56:59;;;;;;;11.73;8.77;;;1.00;56.10;;;;;;5029267;28;20661;-50
2023/03/01 03:59:29;;;;;;;12.63;9.02;;;0.90;56.20;;;;;;5028804;28;20529;-50
2023/03/01 04:01:55;;;;;;;13.70;9.32;;;0.90;56.20;;;;;;5014927;28;20037;-49
2023/03/01 04:04:25;;;;;;;11.73;8.38;;;0.90;56.20;;;;;;5027579;28;20065;-48
2023/03/01 04:06:56;;;;;;;10.18;8.25;;;0.90;56.20;;;;;;5029315;28;20052;-48
2023/03/01 04:09:22;;;;;;;12.65;11.45;;;0.90;56.20;;;;;;5017437;28;20054;-52
2023/03/01 04:11:49;;;;;;;10.30;7.97;;;0.90;56.10;;;;;;5002742;28;20517;-48
2023/03/01 04:14:21;;;;;;;10.32;8.70;;;0.90;56.10;;;;;;5027261;28;20049;-52
2023/03/01 04:16:47;;;;;;;10.77;9.00;;;0.90;56.20;;;;;;5029593;28;20071;-53
2023/03/01 04:19:15;;;;;;;12.38;9.18;;;0.90;56.20;;;;;;5010466;28;20434;-50
2023/03/01 04:21:42;;;;;;;12.15;9.23;;;0.90;56.10;;;;;;5013822;28;20038;-48
2023/03/01 04:24:09;;;;;;;11.55;8.68;;;0.90;56.10;;;;;;4996221;28;20368;-51
2023/03/01 04:26:39;;;;;;;11.60;8.77;;;0.90;56.10;;;;;;5021704;28;20041;-50
2023/03/01 04:29:06;;;;;;;12.85;8.20;;;0.90;56.20;;;;;;5017608;28;20537;-51
2023/03/01 04:31:33;;;;;;;11.70;9.40;;;0.90;56.20;;;;;;4999207;28;20051;-48
2023/03/01 04:34:00;;;;;;;12.02;9.00;;;0.90;56.30;;;;;;5019398;28;20049;-48
2023/03/01 04:36:28;;;;;;;13.23;8.02;;;0.90;56.30;;;;;;5029268;28;20065;-50
2023/03/01 04:38:56;;;;;;;10.63;8.18;;;0.90;56.30;;;;;;5018671;28;20762;-50
2023/03/01 04:41:28;;;;;;;;;;;0.80;56.30;;;;;;5013570;28;20568;-48
2023/03/01 04:43:55;;;;;;;9.38;7.65;;;0.90;57.20;;;;;;5023367;28;19928;-51
2023/03/01 04:46:25;;;;;;;11.77;7.85;;;0.90;56.00;;;;;;5029139;28;20052;-50
2023/03/01 04:48:54;;;;;;;9.30;7.57;;;0.80;56.40;;;;;;5006178;28;20495;-51
2023/03/01 04:51:23;;;;;;;9.60;8.00;;;0.90;56.50;;;;;;5012292;28;20060;-46
2023/03/01 04:53:50;;;;;;;12.73;8.55;;;0.90;56.70;;;;;;5018119;28;20042;-47
2023/03/01 04:56:22;;;;;;;9.32;7.95;;;0.90;57.10;;;;;;5032070;28;20045;-48
2023/03/01 04:58:53;;;;;;;11.18;7.95;;;0.90;57.20;;;;;;5032575;28;20084;-48
2023/03/01 05:01:21;;;;;;;11.63;8.50;;;0.90;57.30;;;;;;5021300;28;20133;-46
2023/03/01 05:03:50;;;;;;;12.60;8.68;;;0.90;57.20;;;;;;5021526;28;20048;-47
2023/03/01 05:06:19;;;;;;;10.63;9.00;;;0.90;57.50;;;;;;5032737;28;20567;-50
2023/03/01 05:08:45;;;;;;;11.88;9.20;;;1.00;57.50;;;;;;5032023;22;20061;-42
2023/03/01 05:11:15;;;;;;;11.88;8.48;;;1.00;57.60;;;;;;5005909;28;20121;-43
2023/03/01 05:13:42;;;;;;;11.50;9.20;;;1.10;57.70;;;;;;5013862;28;20045;-42
2023/03/01 05:16:10;;;;;;;13.23;9.30;;;1.00;57.70;;;;;;5011132;28;20080;-42
2023/03/01 05:18:38;;;;;;;13.23;8.80;;;1.00;57.70;;;;;;5004413;28;20038;-42
2023/03/01 05:21:08;;;;;;;9.98;8.50;;;1.10;57.70;;;;;;5000006;28;20034;-45
2023/03/01 05:23:35;;;;;;;11.13;8.35;;;1.10;57.70;;;;;;5000208;28;20061;-46
2023/03/01 05:26:05;;;;;;;10.95;8.45;;;1.10;57.60;;;;;;5009452;28;20046;-41
2023/03/01 05:28:39;;;;;;;12.45;8.40;;;1.10;57.60;;;;;;5000899;28;20125;-42
2023/03/01 05:31:09;;;;;;;19.85;9.20;;;1.10;57.60;;;;;;5005991;28;20674;-43
2023/03/01 05:33:40;;;;;;;14.80;9.95;;;1.10;57.50;;;;;;4995380;28;20547;-45
2023/03/01 05:36:09;;;;;;;13.02;9.95;;;1.30;57.80;;;;;;5009817;28;20050;-45
2023/03/01 05:38:38;;;;;;;12.60;8.50;;;1.10;57.60;;;;;;5004205;28;20069;-44
2023/03/01 05:41:05;;;;;;;12.85;9.45;;;1.10;57.70;;;;;;4997993;28;20058;-44
2023/03/01 05:43:33;;;;;;;11.27;9.32;;;1.20;57.60;;;;;;5002841;28;20042;-44
2023/03/01 05:46:00;;;;;;;12.25;9.23;;;1.10;57.70;;;;;;5011608;28;20049;-43
2023/03/01 05:48:27;;;;;;;13.48;8.70;;;1.10;57.70;;;;;;5008550;28;20042;-45
2023/03/01 05:50:53;;;;;;;15.43;8.57;;;1.20;57.80;;;;;;5004438;28;20034;-44
2023/03/01 05:53:20;;;;;;;14.07;9.43;;;1.20;57.80;;;;;;4999927;28;20049;-45
2023/03/01 05:55:51;;;;;;;12.10;9.25;;;1.20;57.80;;;;;;5010229;28;20108;-45
2023/03/01 05:58:19;;;;;;;11.82;8.63;;;1.20;57.70;;;;;;5009652;28;20054;-43
2023/03/01 06:00:48;;;;;;;13.23;9.68;;;1.20;57.70;;;;;;5000042;28;20042;-43
2023/03/01 06:03:17;;;;;;;11.25;8.00;;;1.20;57.50;;;;;;5005010;28;20057;-42
2023/03/01 06:05:44;;;;;;;10.48;8.82;;;1.10;57.40;;;;;;5010138;28;20038;-45
2023/03/01 06:08:12;;;;;;;9.48;7.50;;;1.10;57.30;;;;;;5004345;28;20061;-44
2023/03/01 06:10:39;;;;;;;11.23;9.20;;;1.10;57.20;;;;;;5008266;28;20469;-45
2023/03/01 06:13:06;;;;;;;12.07;8.85;;;1.10;57.20;;;;;;5009500;28;20065;-43
2023/03/01 06:15:32;;;;;;;11.85;9.75;;;1.00;57.20;;;;;;4997428;28;20061;-47
2023/03/01 06:17:59;;;;;;;12.07;9.40;;;1.10;57.20;;;;;;4998725;28;20034;-45
2023/03/01 06:20:28;;;;;;;14.15;9.77;;;1.00;57.70;;;;;;5007130;28;20046;-44
2023/03/01 06:22:54;;;;;;;15.52;8.75;;;1.00;57.10;;;;;;4999227;28;20042;-46
2023/03/01 06:25:23;;;;;;;10.55;8.07;;;0.90;57.00;;;;;;5008421;28;20120;-44
2023/03/01 06:27:51;;;;;;;10.70;8.02;;;0.90;57.00;;;;;;5009422;28;20069;-44
2023/03/01 06:30:20;;;;;;;14.23;8.73;;;0.90;57.10;;;;;;5004317;28;20054;-45
2023/03/01 06:32:46;;;;;;;11.98;8.82;;;0.90;57.40;;;;;;4998252;28;20536;-45
2023/03/01 06:35:17;;;;;;;13.63;8.93;;;0.80;57.40;;;;;;5009359;28;20053;-46
2023/03/01 06:37:44;;;;;;;10.35;8.35;;;0.80;57.50;;;;;;5009574;28;20499;-45
2023/03/01 06:40:11;;;;;;;10.23;8.48;;;0.80;57.40;;;;;;5003531;28;20530;-45
2023/03/01 06:42:40;;;;;;;13.15;9.05;;;0.80;57.40;;;;;;5004489;28;20074;-44
2023/03/01 06:45:08;;;;;;;13.82;9.18;;;0.80;57.50;;;;;;5007783;28;20499;-43
2023/03/01 06:47:35;;;;;;;10.85;8.68;;;0.80;57.50;;;;;;5001611;28;20096;-45
2023/03/01 06:50:02;;;;;;;11.35;8.50;;;0.80;57.50;;;;;;5008166;28;20612;-47
2023/03/01 06:52:29;;;;;;;11.93;8.88;;;0.80;57.40;;;;;;5001055;28;20045;-45
2023/03/01 06:54:56;;;;;;;10.63;8.55;;;0.80;57.50;;;;;;5004980;28;20049;-46
2023/03/01 06:57:24;;;;;;;10.82;8.48;;;0.80;57.50;;;;;;5007362;28;20045;-43
2023/03/01 06:59:53;;;;;;;13.07;9.15;;;0.80;57.60;;;;;;5004014;28;20046;-44
2023/03/01 07:02:20;;;;;;;11.63;9.18;;;0.80;57.70;;;;;;5008878;28;20049;-44
2023/03/01 07:04:49;;;;;;;11.88;8.63;;;0.80;57.70;;;;;;5005030;28;20506;-43
2023/03/01 07:07:17;;;;;;;16.38;9.80;;;0.80;57.80;;;;;;5002879;28;20050;-46
2023/03/01 07:09:45;;;;;;;10.90;8.85;;;0.80;57.90;;;;;;5005802;28;20057;-47
2023/03/01 07:12:14;;;;;;;11.88;9.10;;;0.80;57.90;;;;;;5010007;28;20046;-44
2023/03/01 07:14:41;;;;;;;11.70;8.85;;;0.80;58.20;;;;;;5010394;28;20052;-44
2023/03/01 07:17:10;;;;;;;17.13;10.35;;;0.80;58.40;;;;;;4994107;28;20051;-44
2023/03/01 07:19:36;;;;;;;13.93;10.48;;;0.80;58.50;;;;;;5001828;28;20042;-45
2023/03/01 07:22:04;;;;;;;16.30;10.07;;;0.90;58.60;;;;;;4999499;28;20034;-44
2023/03/01 07:24:30;;;;;;;16.77;9.52;;;1.00;58.80;;;;;;5001228;28;20368;-44
2023/03/01 07:26:58;;;;;;;16.60;10.75;;;1.00;58.80;;;;;;5002695;28;20065;-43
2023/03/01 07:29:24;;;;;;;14.30;9.48;;;1.00;58.90;;;;;;5005428;28;20498;-45
2023/03/01 07:31:51;;;;;;;13.82;10.10;;;1.10;59.00;;;;;;5009130;28;20509;-44
2023/03/01 07:34:18;;;;;;;14.18;10.25;;;1.10;59.00;;;;;;5008845;28;20046;-45
2023/03/01 07:36:45;;;;;;;15.07;10.30;;;1.20;59.00;;;;;;5008909;28;20038;-44
2023/03/01 07:39:11;;;;;;;14.60;9.55;;;1.20;59.10;;;;;;5004884;28;20038;-45
2023/03/01 07:41:38;;;;;;;16.48;10.68;;;1.30;59.10;;;;;;4998774;28;20034;-44
2023/03/01 07:44:05;;;;;;;15.32;9.95;;;1.30;59.10;;;;;;5008884;28;20041;-44
2023/03/01 07:46:32;;;;;;;14.30;10.05;;;1.40;59.10;;;;;;5009993;28;20411;-43
2023/03/01 07:48:59;;;;;;;15.32;10.60;;;1.40;59.00;;;;;;5008849;28;20084;-43
2023/03/01 07:51:25;;;;;;;14.57;11.15;;;1.50;59.00;;;;;;5000315;28;20046;-45
2023/03/01 07:53:52;;;;;;;15.18;10.70;;;1.60;59.00;;;;;;5004717;28;20417;-44
2023/03/01 07:56:21;;;;;;;16.65;10.38;;;1.60;59.00;;;;;;5009955;28;20065;-45
2023/03/01 07:58:47;;;;;;;15.05;10.63;;;1.70;59.00;;;;;;5004221;28;20046;-43
2023/03/01 08:01:19;;;;;;;15.15;10.07;;;1.70;58.80;;;;;;5007076;28;20473;-44
2023/03/01 08:03:46;;;;;;;23.20;10.70;;;1.80;59.00;;;;;;5008942;28;20049;-42
2023/03/01 08:06:15;;;;;;;17.27;11.73;;;1.80;58.90;;;;;;5005249;28;20037;-44
2023/03/01 08:08:42;;;;;;;19.25;11.45;;;2.00;59.00;;;;;;5006682;28;20048;-49
2023/03/01 08:11:11;;;;;;;15.90;10.55;;;1.90;58.90;;;;;;5008274;28;20754;-43
2023/03/01 08:13:39;;;;;;;14.07;10.60;;;2.00;59.00;;;;;;5008934;28;20049;-46
2023/03/01 08:16:09;;;;;;;17.75;11.68;;;2.00;58.80;;;;;;4998620;28;20046;-44
2023/03/01 08:18:36;;;;;;;15.15;10.00;;;2.00;58.90;;;;;;4993628;28;20557;-44
2023/03/01 08:21:08;;;;;;;16.17;10.95;;;2.10;58.80;;;;;;5005833;28;20133;-44
2023/03/01 08:23:35;;;;;;;17.63;11.43;;;2.10;58.70;;;;;;5004600;28;20034;-44
2023/03/01 08:26:14;;;;;;;19.70;12.07;;;2.20;58.70;;;;;;5013441;28;20096;-44
2023/03/01 08:28:41;;;;;;;17.13;11.30;;;2.20;59.00;;;;;;5003106;28;20524;-44
2023/03/01 08:31:20;;;;;;;16.50;11.65;;;2.30;58.70;;;;;;5007481;28;20069;-45
2023/03/01 08:33:50;;;;;;;13.65;10.55;;;2.30;59.00;;;;;;5006330;28;20041;-44
2023/03/01 08:36:18;;;;;;;18.20;11.57;;;2.30;58.60;;;;;;5012534;28;20088;-44
2023/03/01 08:38:45;;;;;;;16.42;11.32;;;2.40;58.70;;;;;;5004317;28;20069;-45
2023/03/01 08:41:12;;;;;;;16.08;10.85;;;2.40;58.60;;;;;;5003574;28;20072;-45
2023/03/01 08:43:38;;;;;;;16.55;11.45;;;2.50;58.60;;;;;;5012364;28;20041;-45
2023/03/01 08:46:05;;;;;;;22.92;12.55;;;2.50;58.60;;;;;;5013146;28;20056;-44
2023/03/01 08:48:32;;;;;;;17.80;11.52;;;2.60;58.50;;;;;;5002683;28;20054;-44
2023/03/01 08:51:12;;;;;;;16.30;10.85;;;2.60;58.50;;;;;;5003022;28;20057;-46
2023/03/01 08:53:39;;;;;;;16.27;11.00;;;2.70;58.70;;;;;;5007333;28;20053;-45
2023/03/01 08:56:07;;;;;;;21.75;11.48;;;2.70;58.30;;;;;;5012494;28;20533;-44
2023/03/01 08:58:33;;;;;;;20.80;11.25;;;2.80;58.30;;;;;;5011279;28;20554;-45
2023/03/01 09:01:01;;;;;;;16.63;11.43;;;2.80;58.20;;;;;;5007494;28;20060;-46
2023/03/01 09:03:27;;;;;;;19.08;11.27;;;2.90;58.20;;;;;;4997077;28;20046;-45
2023/03/01 09:06:01;;;;;;;19.08;11.85;;;3.10;58.20;;;;;;5011871;28;20125;-46
2023/03/01 09:08:28;;;;;;;17.27;11.65;;;3.00;58.20;;;;;;5010425;28;20056;-45
2023/03/01 09:10:55;;;;;;;15.95;11.48;;;3.00;58.00;;;;;;5000051;28;20093;-45
2023/03/01 09:13:24;;;;;;;15.85;11.80;;;3.10;57.90;;;;;;5009966;28;20048;-45
2023/03/01 09:15:51;;;;;;;15.90;10.80;;;3.20;57.80;;;;;;5007269;28;20042;-44
2023/03/01 09:18:18;;;;;;;18.10;12.57;;;3.20;57.70;;;;;;4993596;28;20050;-45
2023/03/01 09:20:45;;;;;;;20.25;12.07;;;3.30;57.60;;;;;;5006726;28;20042;-44
2023/03/01 09:23:11;;;;;;;18.77;12.23;;;3.30;57.60;;;;;;4999500;28;20109;-46
2023/03/01 09:25:39;;;;;;;14.98;10.93;;;3.40;57.50;;;;;;5012019;28;20045;-44
2023/03/01 09:28:06;;;;;;;16.48;10.68;;;3.40;57.40;;;;;;5011192;28;20049;-44
2023/03/01 09:30:32;;;;;;;16.25;11.00;;;3.50;57.40;;;;;;5016263;28;20050;-46
2023/03/01 09:33:00;;;;;;;14.80;10.55;;;3.60;57.30;;;;;;5002637;28;20054;-45
2023/03/01 09:35:27;;;;;;;18.00;12.35;;;3.60;57.30;;;;;;5004806;28;20410;-45
2023/03/01 09:37:54;;;;;;;16.00;12.25;;;3.70;57.10;;;;;;5007769;28;20073;-47
2023/03/01 09:40:25;;;;;;;15.68;11.18;;;3.70;56.90;;;;;;5004787;28;20499;-45
2023/03/01 09:43:30;;;;;;;16.90;11.82;;;3.80;56.70;;;;;;5009953;28;20057;-49
2023/03/01 09:46:03;;;;;;;16.55;10.23;;;3.90;56.90;;;;;;5007198;28;20046;-44
2023/03/01 09:48:39;;;;;;;18.17;11.30;;;3.90;56.50;;;;;;5005950;28;20111;-45
2023/03/01 09:51:14;;;;;;;14.23;10.55;;;4.00;56.50;;;;;;5000707;28;20061;-46
2023/03/01 09:53:41;;;;;;;13.48;10.30;;;4.00;56.10;;;;;;5007593;28;20046;-45
2023/03/01 09:56:22;;;;;;;14.48;10.98;;;4.10;56.00;;;;;;5012604;28;20253;-47
2023/03/01 09:59:13;;;;;;;14.35;9.77;;;4.20;55.90;;;;;;4996642;28;20104;-45
2023/03/01 10:02:34;;;;;;;14.00;10.02;;;4.20;55.80;;;;;;5002826;28;20034;-45
2023/03/01 10:05:28;;;;;;;15.35;11.48;;;4.30;55.70;;;;;;4945313;29;20051;-45
2023/03/01 10:08:29;;;;;;;14.95;10.00;;;4.40;55.40;;;;;;5004811;28;20410;-44
2023/03/01 10:10:56;;;;;;;13.15;9.88;;;4.50;55.20;;;;;;5004187;28;20050;-45
2023/03/01 10:13:31;;;;;;;15.30;10.10;;;4.50;55.10;;;;;;5008835;28;20049;-46
2023/03/01 10:16:10;;;;;;;15.05;10.63;;;4.60;55.10;;;;;;5007831;28;20409;-46
2023/03/01 10:18:40;;;;;;;13.10;9.95;;;4.60;54.80;;;;;;5003457;28;20521;-45
2023/03/01 10:21:16;;;;;;;18.67;11.00;;;4.70;54.70;;;;;;5007424;28;20045;-46
2023/03/01 10:23:43;;;;;;;12.98;9.30;;;4.70;54.90;;;;;;4998506;28;20574;-50
2023/03/01 10:26:33;;;;;;;13.57;10.80;;;4.80;54.40;;;;;;5010792;28;20096;-45
2023/03/01 10:29:07;;;;;;;14.52;10.95;;;4.80;54.50;;;;;;5010499;28;20053;-46
2023/03/01 10:31:52;;;;;;;12.60;9.82;;;4.90;54.30;;;;;;5002541;28;20580;-46
2023/03/01 10:34:32;;;;;;;14.30;11.07;;;4.90;54.10;;;;;;5010143;28;20077;-44
2023/03/01 10:37:20;;;;;;;16.65;10.82;;;5.00;54.60;;;;;;5009417;28;20136;-45
2023/03/01 10:40:15;;;;;;;12.65;9.60;;;5.00;53.70;;;;;;5005104;28;20573;-45
2023/03/01 10:42:49;;;;;;;14.45;9.70;;;5.10;53.50;;;;;;5000010;28;20050;-45
2023/03/01 10:45:26;;;;;;;13.73;10.57;;;5.20;53.50;;;;;;5008285;28;20089;-46
2023/03/01 10:48:08;;;;;;;14.80;10.30;;;5.20;53.60;;;;;;5008161;28;20033;-46
2023/03/01 10:50:37;;;;;;;14.73;10.25;;;5.30;53.20;;;;;;5004511;28;20065;-47
2023/03/01 10:53:31;;;;;;;13.65;10.63;;;5.30;53.20;;;;;;5004947;28;20052;-45
2023/03/01 10:56:15;;;;;;;15.35;10.13;;;5.40;53.10;;;;;;5006563;28;20038;-46
2023/03/01 10:58:58;;;;;;;13.02;9.65;;;5.40;53.00;;;;;;5002352;28;20048;-49
2023/03/01 11:01:37;;;;;;;13.93;10.98;;;5.50;52.60;;;;;;5004116;28;20046;-46
2023/03/01 11:04:07;;;;;;;12.50;9.93;;;5.60;52.40;;;;;;5009790;28;20045;-45
2023/03/01 11:06:35;;;;;;;15.65;10.10;;;5.60;52.50;;;;;;5008736;28;20042;-47
2023/03/01 11:09:19;;;;;;;15.40;9.50;;;5.70;52.50;;;;;;5005768;28;20128;-48
2023/03/01 11:11:51;;;;;;;13.25;9.48;;;5.70;52.20;;;;;;5002551;28;20049;-44
2023/03/01 11:14:22;;;;;;;14.10;10.65;;;5.80;52.30;;;;;;5009509;28;20160;-47
2023/03/01 11:17:15;;;;;;;13.95;10.18;;;5.90;52.10;;;;;;5007568;28;20498;-46
2023/03/01 11:20:10;;;;;;;10.93;9.05;;;5.90;51.70;;;;;;4997163;28;20076;-46
2023/03/01 11:22:36;;;;;;;12.98;10.07;;;6.00;51.80;;;;;;4997919;28;20038;-48
2023/03/01 11:25:03;;;;;;;14.25;10.18;;;6.00;51.80;;;;;;5005186;28;20052;-47
2023/03/01 11:27:43;;;;;;;14.35;11.23;;;6.10;51.70;;;;;;5001262;28;20053;-45
2023/03/01 11:30:27;;;;;;;15.65;10.82;;;6.10;51.70;;;;;;5006027;28;20517;-43
2023/03/01 11:33:18;;;;;;;15.68;10.32;;;6.20;51.70;;;;;;5007371;28;20056;-45
2023/03/01 11:35:54;;;;;;;16.90;11.30;;;6.20;51.60;;;;;;5001752;28;20042;-47
2023/03/01 11:38:24;;;;;;;16.98;10.50;;;6.30;51.40;;;;;;5008492;28;20096;-44
2023/03/01 11:41:08;;;;;;;14.18;10.63;;;6.30;51.60;;;;;;4999970;28;20049;-44
2023/03/01 11:44:23;;;;;;;17.15;12.40;;;6.40;51.40;;;;;;5008920;28;20096;-45
2023/03/01 11:47:13;;;;;;;14.23;10.68;;;6.40;51.10;;;;;;4989632;28;20058;-45
2023/03/01 11:50:08;;;;;;;12.32;10.50;;;6.50;51.00;;;;;;5000612;28;20379;-45
2023/03/01 11:53:02;;;;;;;13.18;10.10;;;6.60;51.00;;;;;;5003840;28;20453;-49
2023/03/01 11:55:47;;;;;;;14.10;11.45;;;6.60;50.90;;;;;;5001900;28;20044;-48
2023/03/01 11:58:43;;;;;;;17.00;10.88;;;6.60;50.50;;;;;;5003712;28;20129;-45
2023/03/01 12:01:25;;;;;;;14.25;10.23;;;6.70;50.50;;;;;;4974304;28;20050;-45
2023/03/01 12:03:59;;;;;;;15.20;10.90;;;6.70;50.30;;;;;;5009724;28;20109;-47
2023/03/01 12:06:50;;;;;;;14.55;10.50;;;6.80;50.50;;;;;;5009575;28;20113;-46
2023/03/01 12:09:23;;;;;;;16.85;11.10;;;6.80;50.20;;;;;;4999538;28;20041;-44
2023/03/01 12:11:59;;;;;;;14.77;10.30;;;6.90;50.30;;;;;;5003069;28;20049;-45
2023/03/01 12:14:45;;;;;;;13.90;10.70;;;6.90;49.90;;;;;;5003821;28;20050;-45
2023/03/01 12:17:34;;;;;;;14.95;11.30;;;7.00;49.90;;;;;;5006900;28;20054;-45
2023/03/01 12:20:20;;;;;;;13.48;10.05;;;7.00;49.80;;;;;;4984555;28;20050;-44
2023/03/01 12:22:51;;;;;;;15.07;9.63;;;7.10;49.80;;;;;;5036121;23;20132;-47
2023/03/01 12:25:32;;;;;;;18.38;10.43;;;7.10;49.40;;;;;;5029990;28;20091;-47
2023/03/01 12:28:36;;;;;;;11.48;9.60;;;7.20;49.10;;;;;;5029443;28;20502;-46
2023/03/01 12:31:31;;;;;;;11.35;10.00;;;7.20;48.90;;;;;;5024502;28;20044;-46
2023/03/01 12:34:27;;;;;;;13.90;9.77;;;7.30;48.80;;;;;;5000527;28;20112;-47
2023/03/01 12:37:07;;;;;;;12.85;9.77;;;7.30;48.80;;;;;;5005451;28;20060;-46
2023/03/01 12:39:56;;;;;;;11.80;8.88;;;7.40;49.40;;;;;;5008814;28;20045;-47
2023/03/01 12:42:51;;;;;;;13.70;8.48;;;7.40;48.30;;;;;;5007518;28;20478;-47
2023/03/01 12:45:56;;;;;;;13.52;10.25;;;7.50;47.70;;;;;;5005308;28;20077;-47
2023/03/01 12:48:42;;;;;;;10.23;8.60;;;7.50;47.60;;;;;;5009166;28;20092;-48
2023/03/01 12:51:20;;;;;;;10.93;8.10;;;7.60;48.00;;;;;;5007147;28;20070;-46
2023/03/01 12:53:49;;;;;;;12.13;8.95;;;7.60;47.70;;;;;;5008522;28;20487;-49
2023/03/01 12:56:28;;;;;;;10.27;8.63;;;7.70;47.90;;;;;;5009288;28;20038;-49
2023/03/01 12:59:02;;;;;;;11.35;9.40;;;7.70;47.90;;;;;;5009470;28;20384;-48
2023/03/01 13:02:01;;;;;;;12.77;9.55;;;7.80;48.00;;;;;;5009025;28;20050;-48
2023/03/01 13:04:46;;;;;;;12.02;9.23;;;7.90;47.80;;;;;;5009486;28;20122;-48
2023/03/01 13:07:29;;;;;;;12.98;9.68;;;7.90;47.90;;;;;;5009064;28;20517;-47
2023/03/01 13:10:05;;;;;;;13.32;8.88;;;8.00;47.60;;;;;;5010897;28;20042;-47
2023/03/01 13:13:10;;;;;;;11.57;8.77;;;8.00;47.60;;;;;;5012206;28;20049;-49
2023/03/01 13:15:39;;;;;;;11.95;8.57;;;8.10;47.10;;;;;;4994486;28;20510;-50
2023/03/01 13:18:16;;;;;;;12.75;8.93;;;8.20;47.20;;;;;;5006321;28;20054;-47